logo
Search for airport 
image banner adimage banner adimage banner ad
image banner ad

EGLC - London/City

Located in London, United Kingdom

ICAO - EGLC, IATA - LCY

Data provided by Airmate  

General information

Coordinates: N51°30'19" E0°3'19"
Elevation is 20 feet MSL.
 
View others Airports in England

Operational data

Special qualification required
Current time UTC:
Current local time:
Weather
METAR: EGLC 241820Z AUTO 34008KT 300V010 9999 BKN045 09/M01 Q1014
View NOTAMs / SUP AIP / TFR affecting this airport [VIEW]
Communications frequencies: [VIEW]

Runways:

RWY identifierQFULength (ft)Width (ft)SurfaceLDA (ft)
0993°494898UNK
27273°494898UNK

Airport contact information

Address: London United Kingdom

Handlers

London City Jet Centre

London City Jet Centre
[VIEW][VIEW]
+447786575297

Satellite view of EGLC